sensor_id;sensor_type;location;lat;lon;timestamp;P1;durP1;ratioP1;P2;durP2;ratioP2
54899;SDS011;40801;41.924;25.562;2022-09-01T00:02:11;13.63;;;12.32;;
54899;SDS011;40801;41.924;25.562;2022-09-01T00:04:38;13.43;;;11.75;;
54899;SDS011;40801;41.924;25.562;2022-09-01T00:07:04;12.10;;;11.00;;
54899;SDS011;40801;41.924;25.562;2022-09-01T00:09:31;13.48;;;11.85;;
54899;SDS011;40801;41.924;25.562;2022-09-01T00:11:57;14.00;;;12.75;;
54899;SDS011;40801;41.924;25.562;2022-09-01T00:14:24;11.90;;;10.80;;
54899;SDS011;40801;41.924;25.562;2022-09-01T00:16:52;12.10;;;11.10;;
54899;SDS011;40801;41.924;25.562;2022-09-01T00:19:18;13.40;;;11.65;;
54899;SDS011;40801;41.924;25.562;2022-09-01T00:21:44;12.50;;;11.38;;
54899;SDS011;40801;41.924;25.562;2022-09-01T00:24:11;11.73;;;10.63;;
54899;SDS011;40801;41.924;25.562;2022-09-01T00:26:38;12.77;;;11.48;;
54899;SDS011;40801;41.924;25.562;2022-09-01T00:29:04;11.90;;;10.90;;
54899;SDS011;40801;41.924;25.562;2022-09-01T00:31:30;12.23;;;10.95;;
54899;SDS011;40801;41.924;25.562;2022-09-01T00:33:55;11.60;;;10.50;;
54899;SDS011;40801;41.924;25.562;2022-09-01T00:36:21;11.85;;;10.75;;
54899;SDS011;40801;41.924;25.562;2022-09-01T00:38:47;11.90;;;10.77;;
54899;SDS011;40801;41.924;25.562;2022-09-01T00:41:14;11.05;;;10.18;;
54899;SDS011;40801;41.924;25.562;2022-09-01T00:46:12;11.80;;;10.90;;
54899;SDS011;40801;41.924;25.562;2022-09-01T00:51:06;12.05;;;11.13;;
54899;SDS011;40801;41.924;25.562;2022-09-01T00:53:34;11.65;;;10.57;;
54899;SDS011;40801;41.924;25.562;2022-09-01T00:56:01;11.73;;;10.65;;
54899;SDS011;40801;41.924;25.562;2022-09-01T00:58:28;11.35;;;10.40;;
54899;SDS011;40801;41.924;25.562;2022-09-01T01:00:54;11.55;;;10.55;;
54899;SDS011;40801;41.924;25.562;2022-09-01T01:03:20;11.38;;;10.40;;
54899;SDS011;40801;41.924;25.562;2022-09-01T01:05:50;11.75;;;10.75;;
54899;SDS011;40801;41.924;25.562;2022-09-01T01:08:21;12.57;;;11.48;;
54899;SDS011;40801;41.924;25.562;2022-09-01T01:10:58;11.52;;;10.73;;
54899;SDS011;40801;41.924;25.562;2022-09-01T01:13:29;12.02;;;11.02;;
54899;SDS011;40801;41.924;25.562;2022-09-01T01:16:00;12.55;;;11.48;;
54899;SDS011;40801;41.924;25.562;2022-09-01T01:18:27;13.88;;;12.70;;
54899;SDS011;40801;41.924;25.562;2022-09-01T01:21:01;14.00;;;12.80;;
54899;SDS011;40801;41.924;25.562;2022-09-01T01:24:32;14.52;;;13.18;;
54899;SDS011;40801;41.924;25.562;2022-09-01T01:26:46;13.25;;;11.90;;
54899;SDS011;40801;41.924;25.562;2022-09-01T01:29:11;14.10;;;12.20;;
54899;SDS011;40801;41.924;25.562;2022-09-01T01:31:37;15.45;;;13.15;;
54899;SDS011;40801;41.924;25.562;2022-09-01T01:34:03;13.43;;;12.23;;
54899;SDS011;40801;41.924;25.562;2022-09-01T01:36:32;13.20;;;11.98;;
54899;SDS011;40801;41.924;25.562;2022-09-01T01:39:02;12.88;;;11.68;;
54899;SDS011;40801;41.924;25.562;2022-09-01T01:41:35;13.15;;;11.98;;
54899;SDS011;40801;41.924;25.562;2022-09-01T01:44:05;12.57;;;11.55;;
54899;SDS011;40801;41.924;25.562;2022-09-01T01:46:34;12.98;;;11.75;;
54899;SDS011;40801;41.924;25.562;2022-09-01T01:49:01;11.70;;;10.77;;
54899;SDS011;40801;41.924;25.562;2022-09-01T01:51:28;12.23;;;11.27;;
54899;SDS011;40801;41.924;25.562;2022-09-01T01:53:57;12.60;;;11.48;;
54899;SDS011;40801;41.924;25.562;2022-09-01T01:56:26;12.45;;;11.35;;
54899;SDS011;40801;41.924;25.562;2022-09-01T01:58:52;12.73;;;11.82;;
54899;SDS011;40801;41.924;25.562;2022-09-01T02:01:24;11.45;;;10.57;;
54899;SDS011;40801;41.924;25.562;2022-09-01T02:03:53;11.95;;;11.10;;
54899;SDS011;40801;41.924;25.562;2022-09-01T02:06:20;12.38;;;11.38;;
54899;SDS011;40801;41.924;25.562;2022-09-01T02:08:49;14.10;;;12.88;;
54899;SDS011;40801;41.924;25.562;2022-09-01T02:11:16;13.07;;;11.98;;
54899;SDS011;40801;41.924;25.562;2022-09-01T02:13:42;12.73;;;11.85;;
54899;SDS011;40801;41.924;25.562;2022-09-01T02:16:09;13.57;;;12.10;;
54899;SDS011;40801;41.924;25.562;2022-09-01T02:18:37;14.32;;;13.10;;
54899;SDS011;40801;41.924;25.562;2022-09-01T02:21:07;13.10;;;12.02;;
54899;SDS011;40801;41.924;25.562;2022-09-01T02:23:35;16.27;;;14.73;;
54899;SDS011;40801;41.924;25.562;2022-09-01T02:26:03;14.63;;;13.23;;
54899;SDS011;40801;41.924;25.562;2022-09-01T02:28:31;16.15;;;14.57;;
54899;SDS011;40801;41.924;25.562;2022-09-01T02:31:01;15.88;;;14.57;;
54899;SDS011;40801;41.924;25.562;2022-09-01T02:33:28;16.88;;;15.48;;
54899;SDS011;40801;41.924;25.562;2022-09-01T02:35:56;16.20;;;14.82;;
54899;SDS011;40801;41.924;25.562;2022-09-01T02:38:24;15.20;;;14.05;;
54899;SDS011;40801;41.924;25.562;2022-09-01T02:40:53;16.10;;;14.70;;
54899;SDS011;40801;41.924;25.562;2022-09-01T02:43:20;15.63;;;14.32;;
54899;SDS011;40801;41.924;25.562;2022-09-01T02:45:47;15.50;;;14.07;;
54899;SDS011;40801;41.924;25.562;2022-09-01T02:48:18;15.13;;;13.82;;
54899;SDS011;40801;41.924;25.562;2022-09-01T02:50:47;14.48;;;13.05;;
54899;SDS011;40801;41.924;25.562;2022-09-01T02:53:13;15.40;;;14.07;;
54899;SDS011;40801;41.924;25.562;2022-09-01T02:55:40;15.57;;;13.98;;
54899;SDS011;40801;41.924;25.562;2022-09-01T02:58:07;15.40;;;14.10;;
54899;SDS011;40801;41.924;25.562;2022-09-01T03:00:37;14.93;;;13.65;;
54899;SDS011;40801;41.924;25.562;2022-09-01T03:03:04;13.70;;;12.60;;
54899;SDS011;40801;41.924;25.562;2022-09-01T03:05:31;15.27;;;13.75;;
54899;SDS011;40801;41.924;25.562;2022-09-01T03:08:02;15.57;;;13.90;;
54899;SDS011;40801;41.924;25.562;2022-09-01T03:10:30;14.90;;;13.82;;
54899;SDS011;40801;41.924;25.562;2022-09-01T03:13:20;15.35;;;13.85;;
54899;SDS011;40801;41.924;25.562;2022-09-01T03:15:47;14.88;;;13.57;;
54899;SDS011;40801;41.924;25.562;2022-09-01T03:18:14;15.02;;;13.63;;
54899;SDS011;40801;41.924;25.562;2022-09-01T03:20:42;14.80;;;13.50;;
54899;SDS011;40801;41.924;25.562;2022-09-01T03:23:11;15.52;;;14.27;;
54899;SDS011;40801;41.924;25.562;2022-09-01T03:25:39;15.43;;;14.30;;
54899;SDS011;40801;41.924;25.562;2022-09-01T03:28:06;17.13;;;15.38;;
54899;SDS011;40801;41.924;25.562;2022-09-01T03:30:34;16.25;;;14.90;;
54899;SDS011;40801;41.924;25.562;2022-09-01T03:33:04;16.67;;;15.27;;
54899;SDS011;40801;41.924;25.562;2022-09-01T03:35:30;16.88;;;15.43;;
54899;SDS011;40801;41.924;25.562;2022-09-01T03:37:56;17.15;;;15.65;;
54899;SDS011;40801;41.924;25.562;2022-09-01T03:40:23;17.48;;;15.88;;
54899;SDS011;40801;41.924;25.562;2022-09-01T03:42:57;17.17;;;15.45;;
54899;SDS011;40801;41.924;25.562;2022-09-01T03:45:27;16.70;;;15.23;;
54899;SDS011;40801;41.924;25.562;2022-09-01T03:47:54;15.68;;;14.23;;
54899;SDS011;40801;41.924;25.562;2022-09-01T03:50:21;16.73;;;15.35;;
54899;SDS011;40801;41.924;25.562;2022-09-01T03:52:52;17.77;;;16.48;;
54899;SDS011;40801;41.924;25.562;2022-09-01T03:55:24;16.60;;;15.20;;
54899;SDS011;40801;41.924;25.562;2022-09-01T03:57:57;17.38;;;15.93;;
54899;SDS011;40801;41.924;25.562;2022-09-01T04:00:25;18.27;;;16.75;;
54899;SDS011;40801;41.924;25.562;2022-09-01T04:02:54;17.88;;;16.42;;
54899;SDS011;40801;41.924;25.562;2022-09-01T04:05:25;17.13;;;15.45;;
54899;SDS011;40801;41.924;25.562;2022-09-01T04:07:57;17.98;;;16.20;;
54899;SDS011;40801;41.924;25.562;2022-09-01T04:10:32;18.55;;;16.65;;
54899;SDS011;40801;41.924;25.562;2022-09-01T04:13:00;17.73;;;16.20;;
54899;SDS011;40801;41.924;25.562;2022-09-01T04:15:27;24.90;;;22.58;;
54899;SDS011;40801;41.924;25.562;2022-09-01T04:17:53;30.63;;;27.65;;
54899;SDS011;40801;41.924;25.562;2022-09-01T04:20:41;17.52;;;16.10;;
54899;SDS011;40801;41.924;25.562;2022-09-01T04:23:21;18.90;;;17.38;;
54899;SDS011;40801;41.924;25.562;2022-09-01T04:25:58;18.60;;;16.70;;
54899;SDS011;40801;41.924;25.562;2022-09-01T04:28:33;29.92;;;16.27;;
54899;SDS011;40801;41.924;25.562;2022-09-01T04:31:01;19.10;;;17.27;;
54899;SDS011;40801;41.924;25.562;2022-09-01T04:33:30;16.77;;;15.38;;
54899;SDS011;40801;41.924;25.562;2022-09-01T04:36:14;24.17;;;18.20;;
54899;SDS011;40801;41.924;25.562;2022-09-01T04:38:43;16.95;;;15.45;;
54899;SDS011;40801;41.924;25.562;2022-09-01T04:41:09;17.13;;;15.23;;
54899;SDS011;40801;41.924;25.562;2022-09-01T04:43:37;17.83;;;16.40;;
54899;SDS011;40801;41.924;25.562;2022-09-01T04:46:04;17.77;;;15.80;;
54899;SDS011;40801;41.924;25.562;2022-09-01T04:48:29;16.65;;;15.15;;
54899;SDS011;40801;41.924;25.562;2022-09-01T04:50:55;19.02;;;16.08;;
54899;SDS011;40801;41.924;25.562;2022-09-01T04:53:21;16.13;;;14.55;;
54899;SDS011;40801;41.924;25.562;2022-09-01T04:55:49;15.50;;;14.10;;
54899;SDS011;40801;41.924;25.562;2022-09-01T04:58:17;15.75;;;14.25;;
54899;SDS011;40801;41.924;25.562;2022-09-01T05:00:47;17.42;;;15.52;;
54899;SDS011;40801;41.924;25.562;2022-09-01T05:03:16;14.90;;;13.55;;
54899;SDS011;40801;41.924;25.562;2022-09-01T05:05:46;15.80;;;14.32;;
54899;SDS011;40801;41.924;25.562;2022-09-01T05:08:12;15.95;;;14.55;;
54899;SDS011;40801;41.924;25.562;2022-09-01T05:10:43;15.52;;;13.98;;
54899;SDS011;40801;41.924;25.562;2022-09-01T05:13:10;21.98;;;14.02;;
54899;SDS011;40801;41.924;25.562;2022-09-01T05:15:38;15.55;;;14.13;;
54899;SDS011;40801;41.924;25.562;2022-09-01T05:18:11;16.83;;;15.40;;
54899;SDS011;40801;41.924;25.562;2022-09-01T05:20:49;24.05;;;21.67;;
54899;SDS011;40801;41.924;25.562;2022-09-01T05:23:17;17.25;;;15.65;;
54899;SDS011;40801;41.924;25.562;2022-09-01T05:25:44;15.30;;;14.02;;
54899;SDS011;40801;41.924;25.562;2022-09-01T05:28:13;15.48;;;14.07;;
54899;SDS011;40801;41.924;25.562;2022-09-01T05:30:42;14.63;;;13.30;;
54899;SDS011;40801;41.924;25.562;2022-09-01T05:33:09;15.23;;;13.70;;
54899;SDS011;40801;41.924;25.562;2022-09-01T05:35:39;13.52;;;12.35;;
54899;SDS011;40801;41.924;25.562;2022-09-01T05:38:10;15.45;;;14.00;;
54899;SDS011;40801;41.924;25.562;2022-09-01T05:40:40;15.73;;;14.10;;
54899;SDS011;40801;41.924;25.562;2022-09-01T05:43:08;14.40;;;13.02;;
54899;SDS011;40801;41.924;25.562;2022-09-01T05:45:41;15.73;;;14.25;;
54899;SDS011;40801;41.924;25.562;2022-09-01T05:48:08;14.63;;;13.32;;
54899;SDS011;40801;41.924;25.562;2022-09-01T05:50:38;14.13;;;13.00;;
54899;SDS011;40801;41.924;25.562;2022-09-01T05:53:05;14.13;;;12.77;;
54899;SDS011;40801;41.924;25.562;2022-09-01T05:55:35;14.32;;;13.07;;
54899;SDS011;40801;41.924;25.562;2022-09-01T05:58:01;13.90;;;12.70;;
54899;SDS011;40801;41.924;25.562;2022-09-01T06:00:29;13.68;;;12.57;;
54899;SDS011;40801;41.924;25.562;2022-09-01T06:02:59;14.18;;;12.70;;
54899;SDS011;40801;41.924;25.562;2022-09-01T06:05:26;14.48;;;12.95;;
54899;SDS011;40801;41.924;25.562;2022-09-01T06:07:52;13.18;;;12.10;;
54899;SDS011;40801;41.924;25.562;2022-09-01T06:10:19;13.20;;;12.20;;
54899;SDS011;40801;41.924;25.562;2022-09-01T06:12:44;13.60;;;12.35;;
54899;SDS011;40801;41.924;25.562;2022-09-01T06:15:11;13.02;;;11.93;;
54899;SDS011;40801;41.924;25.562;2022-09-01T06:17:39;11.93;;;10.77;;
54899;SDS011;40801;41.924;25.562;2022-09-01T06:20:05;12.48;;;11.32;;
54899;SDS011;40801;41.924;25.562;2022-09-01T06:22:34;11.38;;;10.45;;
54899;SDS011;40801;41.924;25.562;2022-09-01T06:25:00;12.30;;;11.10;;
54899;SDS011;40801;41.924;25.562;2022-09-01T06:27:26;11.15;;;10.05;;
54899;SDS011;40801;41.924;25.562;2022-09-01T06:29:52;11.90;;;10.90;;
54899;SDS011;40801;41.924;25.562;2022-09-01T06:32:18;12.40;;;11.30;;
54899;SDS011;40801;41.924;25.562;2022-09-01T06:34:44;11.45;;;10.35;;
54899;SDS011;40801;41.924;25.562;2022-09-01T06:37:15;11.98;;;11.02;;
54899;SDS011;40801;41.924;25.562;2022-09-01T06:39:41;12.30;;;11.10;;
54899;SDS011;40801;41.924;25.562;2022-09-01T06:42:08;11.00;;;10.18;;
54899;SDS011;40801;41.924;25.562;2022-09-01T06:44:35;11.63;;;10.20;;
54899;SDS011;40801;41.924;25.562;2022-09-01T06:47:00;11.70;;;10.55;;
54899;SDS011;40801;41.924;25.562;2022-09-01T06:49:26;12.07;;;10.98;;
54899;SDS011;40801;41.924;25.562;2022-09-01T06:51:59;11.77;;;10.68;;
54899;SDS011;40801;41.924;25.562;2022-09-01T06:54:25;11.23;;;9.95;;
54899;SDS011;40801;41.924;25.562;2022-09-01T06:56:50;12.30;;;11.20;;
54899;SDS011;40801;41.924;25.562;2022-09-01T06:59:17;12.57;;;11.32;;
54899;SDS011;40801;41.924;25.562;2022-09-01T07:01:43;12.73;;;11.63;;
54899;SDS011;40801;41.924;25.562;2022-09-01T07:04:08;10.63;;;9.80;;
54899;SDS011;40801;41.924;25.562;2022-09-01T07:06:34;10.80;;;10.00;;
54899;SDS011;40801;41.924;25.562;2022-09-01T07:09:01;10.57;;;9.57;;
54899;SDS011;40801;41.924;25.562;2022-09-01T07:11:28;12.27;;;11.13;;
54899;SDS011;40801;41.924;25.562;2022-09-01T07:13:57;10.95;;;9.93;;
54899;SDS011;40801;41.924;25.562;2022-09-01T07:16:26;11.70;;;10.60;;
54899;SDS011;40801;41.924;25.562;2022-09-01T07:18:54;10.82;;;9.90;;
54899;SDS011;40801;41.924;25.562;2022-09-01T07:21:22;11.35;;;10.27;;
54899;SDS011;40801;41.924;25.562;2022-09-01T07:23:49;11.07;;;10.07;;
54899;SDS011;40801;41.924;25.562;2022-09-01T07:26:15;10.82;;;9.95;;
54899;SDS011;40801;41.924;25.562;2022-09-01T07:28:46;10.88;;;9.98;;
54899;SDS011;40801;41.924;25.562;2022-09-01T07:31:22;11.38;;;9.95;;
54899;SDS011;40801;41.924;25.562;2022-09-01T07:33:49;10.45;;;9.52;;
54899;SDS011;40801;41.924;25.562;2022-09-01T07:36:16;9.52;;;8.65;;
54899;SDS011;40801;41.924;25.562;2022-09-01T07:38:43;12.00;;;9.18;;
54899;SDS011;40801;41.924;25.562;2022-09-01T07:41:09;9.55;;;8.25;;
54899;SDS011;40801;41.924;25.562;2022-09-01T07:43:38;8.48;;;7.47;;
54899;SDS011;40801;41.924;25.562;2022-09-01T07:46:06;7.97;;;7.28;;
54899;SDS011;40801;41.924;25.562;2022-09-01T07:48:32;12.00;;;8.68;;
54899;SDS011;40801;41.924;25.562;2022-09-01T07:50:58;8.68;;;7.45;;
54899;SDS011;40801;41.924;25.562;2022-09-01T07:53:28;9.55;;;7.47;;
54899;SDS011;40801;41.924;25.562;2022-09-01T07:55:55;10.18;;;6.68;;
54899;SDS011;40801;41.924;25.562;2022-09-01T07:58:24;7.90;;;7.18;;
54899;SDS011;40801;41.924;25.562;2022-09-01T08:00:51;8.07;;;6.55;;
54899;SDS011;40801;41.924;25.562;2022-09-01T08:03:20;9.10;;;7.73;;
54899;SDS011;40801;41.924;25.562;2022-09-01T08:05:48;9.20;;;7.28;;
54899;SDS011;40801;41.924;25.562;2022-09-01T08:08:18;10.57;;;7.50;;
54899;SDS011;40801;41.924;25.562;2022-09-01T08:10:44;9.88;;;7.93;;
54899;SDS011;40801;41.924;25.562;2022-09-01T08:13:10;10.27;;;8.55;;
54899;SDS011;40801;41.924;25.562;2022-09-01T08:15:39;8.00;;;7.20;;
54899;SDS011;40801;41.924;25.562;2022-09-01T08:18:05;9.82;;;7.90;;
54899;SDS011;40801;41.924;25.562;2022-09-01T08:20:31;8.05;;;7.25;;
54899;SDS011;40801;41.924;25.562;2022-09-01T08:23:01;10.60;;;9.52;;
54899;SDS011;40801;41.924;25.562;2022-09-01T08:25:28;9.55;;;8.75;;
54899;SDS011;40801;41.924;25.562;2022-09-01T08:27:54;10.45;;;7.38;;
54899;SDS011;40801;41.924;25.562;2022-09-01T08:30:20;9.35;;;7.20;;
54899;SDS011;40801;41.924;25.562;2022-09-01T08:32:46;9.05;;;7.53;;
54899;SDS011;40801;41.924;25.562;2022-09-01T08:35:12;7.28;;;6.57;;
54899;SDS011;40801;41.924;25.562;2022-09-01T08:37:38;8.27;;;7.25;;
54899;SDS011;40801;41.924;25.562;2022-09-01T08:40:05;10.25;;;7.65;;
54899;SDS011;40801;41.924;25.562;2022-09-01T08:45:28;9.10;;;7.55;;
54899;SDS011;40801;41.924;25.562;2022-09-01T08:48:13;11.55;;;8.65;;
54899;SDS011;40801;41.924;25.562;2022-09-01T08:50:42;13.52;;;7.55;;
54899;SDS011;40801;41.924;25.562;2022-09-01T08:53:22;8.88;;;7.05;;
54899;SDS011;40801;41.924;25.562;2022-09-01T08:55:56;10.32;;;6.20;;
54899;SDS011;40801;41.924;25.562;2022-09-01T08:58:23;9.25;;;7.93;;
54899;SDS011;40801;41.924;25.562;2022-09-01T09:00:59;9.63;;;6.93;;
54899;SDS011;40801;41.924;25.562;2022-09-01T09:09:11;11.40;;;8.07;;
54899;SDS011;40801;41.924;25.562;2022-09-01T09:17:07;12.40;;;7.93;;
54899;SDS011;40801;41.924;25.562;2022-09-01T09:19:35;10.05;;;7.50;;
54899;SDS011;40801;41.924;25.562;2022-09-01T09:22:05;10.25;;;7.53;;
54899;SDS011;40801;41.924;25.562;2022-09-01T09:24:36;9.63;;;8.07;;
54899;SDS011;40801;41.924;25.562;2022-09-01T09:27:24;10.73;;;7.47;;
54899;SDS011;40801;41.924;25.562;2022-09-01T09:30:03;7.97;;;7.22;;
54899;SDS011;40801;41.924;25.562;2022-09-01T09:32:45;7.75;;;6.80;;
54899;SDS011;40801;41.924;25.562;2022-09-01T09:40:35;8.98;;;6.40;;
54899;SDS011;40801;41.924;25.562;2022-09-01T09:43:03;7.75;;;6.15;;
54899;SDS011;40801;41.924;25.562;2022-09-01T09:45:37;9.07;;;6.43;;
54899;SDS011;40801;41.924;25.562;2022-09-01T09:48:05;7.78;;;5.47;;
54899;SDS011;40801;41.924;25.562;2022-09-01T09:50:38;9.65;;;6.40;;
54899;SDS011;40801;41.924;25.562;2022-09-01T09:55:59;7.95;;;6.30;;
54899;SDS011;40801;41.924;25.562;2022-09-01T09:58:38;8.82;;;6.53;;
54899;SDS011;40801;41.924;25.562;2022-09-01T10:01:14;11.32;;;6.97;;
54899;SDS011;40801;41.924;25.562;2022-09-01T10:03:57;8.27;;;6.22;;
54899;SDS011;40801;41.924;25.562;2022-09-01T10:06:29;9.73;;;6.93;;
54899;SDS011;40801;41.924;25.562;2022-09-01T10:08:58;10.00;;;6.63;;
54899;SDS011;40801;41.924;25.562;2022-09-01T10:11:28;11.30;;;6.57;;
54899;SDS011;40801;41.924;25.562;2022-09-01T10:14:03;7.50;;;6.80;;
54899;SDS011;40801;41.924;25.562;2022-09-01T10:16:31;6.15;;;5.63;;
54899;SDS011;40801;41.924;25.562;2022-09-01T10:19:02;8.05;;;6.20;;
54899;SDS011;40801;41.924;25.562;2022-09-01T10:21:42;8.98;;;6.55;;
54899;SDS011;40801;41.924;25.562;2022-09-01T10:26:59;10.18;;;6.43;;
54899;SDS011;40801;41.924;25.562;2022-09-01T10:31:52;10.73;;;6.80;;
54899;SDS011;40801;41.924;25.562;2022-09-01T10:34:19;6.90;;;5.90;;
54899;SDS011;40801;41.924;25.562;2022-09-01T10:36:47;7.15;;;5.82;;
54899;SDS011;40801;41.924;25.562;2022-09-01T10:39:15;8.27;;;5.73;;
54899;SDS011;40801;41.924;25.562;2022-09-01T10:46:54;9.57;;;5.57;;
54899;SDS011;40801;41.924;25.562;2022-09-01T10:51:53;7.00;;;4.90;;
54899;SDS011;40801;41.924;25.562;2022-09-01T10:57:06;11.02;;;6.10;;
54899;SDS011;40801;41.924;25.562;2022-09-01T10:59:35;8.35;;;5.88;;
54899;SDS011;40801;41.924;25.562;2022-09-01T11:02:08;10.25;;;6.18;;
54899;SDS011;40801;41.924;25.562;2022-09-01T11:05:08;8.00;;;7.18;;
54899;SDS011;40801;41.924;25.562;2022-09-01T11:17:53;8.65;;;4.97;;
54899;SDS011;40801;41.924;25.562;2022-09-01T11:25:49;7.38;;;5.28;;
54899;SDS011;40801;41.924;25.562;2022-09-01T11:30:57;6.20;;;4.68;;
54899;SDS011;40801;41.924;25.562;2022-09-01T11:33:49;9.15;;;8.20;;
54899;SDS011;40801;41.924;25.562;2022-09-01T11:47:22;6.18;;;4.68;;
54899;SDS011;40801;41.924;25.562;2022-09-01T11:49:55;5.20;;;4.57;;
54899;SDS011;40801;41.924;25.562;2022-09-01T11:52:30;11.35;;;5.25;;
54899;SDS011;40801;41.924;25.562;2022-09-01T11:54:59;7.25;;;6.47;;
54899;SDS011;40801;41.924;25.562;2022-09-01T11:59:59;6.25;;;4.70;;
54899;SDS011;40801;41.924;25.562;2022-09-01T12:02:31;5.97;;;4.30;;
54899;SDS011;40801;41.924;25.562;2022-09-01T12:04:59;6.68;;;4.45;;
54899;SDS011;40801;41.924;25.562;2022-09-01T12:10:31;7.82;;;4.63;;
54899;SDS011;40801;41.924;25.562;2022-09-01T12:13:00;5.57;;;4.03;;
54899;SDS011;40801;41.924;25.562;2022-09-01T12:20:45;6.20;;;4.55;;
54899;SDS011;40801;41.924;25.562;2022-09-01T12:26:40;6.57;;;4.93;;
54899;SDS011;40801;41.924;25.562;2022-09-01T12:28:49;7.68;;;5.10;;
54899;SDS011;40801;41.924;25.562;2022-09-01T12:31:19;11.68;;;5.90;;
54899;SDS011;40801;41.924;25.562;2022-09-01T12:33:47;7.95;;;5.80;;
54899;SDS011;40801;41.924;25.562;2022-09-01T12:38:53;5.25;;;4.43;;
54899;SDS011;40801;41.924;25.562;2022-09-01T12:41:25;5.47;;;4.85;;
54899;SDS011;40801;41.924;25.562;2022-09-01T12:43:51;8.23;;;4.88;;
54899;SDS011;40801;41.924;25.562;2022-09-01T12:46:49;5.97;;;4.40;;
54899;SDS011;40801;41.924;25.562;2022-09-01T12:49:20;6.90;;;4.60;;
54899;SDS011;40801;41.924;25.562;2022-09-01T12:51:49;6.47;;;4.45;;
54899;SDS011;40801;41.924;25.562;2022-09-01T12:54:29;6.30;;;3.90;;
54899;SDS011;40801;41.924;25.562;2022-09-01T12:56:54;6.80;;;5.95;;
54899;SDS011;40801;41.924;25.562;2022-09-01T12:59:22;6.95;;;5.28;;
54899;SDS011;40801;41.924;25.562;2022-09-01T13:01:50;9.13;;;5.00;;
54899;SDS011;40801;41.924;25.562;2022-09-01T13:06:52;12.90;;;11.45;;
54899;SDS011;40801;41.924;25.562;2022-09-01T13:09:19;6.88;;;4.32;;
54899;SDS011;40801;41.924;25.562;2022-09-01T13:11:44;7.68;;;4.78;;
54899;SDS011;40801;41.924;25.562;2022-09-01T13:14:14;4.78;;;4.38;;
54899;SDS011;40801;41.924;25.562;2022-09-01T13:16:40;8.35;;;5.53;;
54899;SDS011;40801;41.924;25.562;2022-09-01T13:19:06;8.80;;;5.18;;
54899;SDS011;40801;41.924;25.562;2022-09-01T13:21:32;6.63;;;6.00;;
54899;SDS011;40801;41.924;25.562;2022-09-01T13:23:59;6.28;;;4.95;;
54899;SDS011;40801;41.924;25.562;2022-09-01T13:26:25;5.75;;;5.03;;
54899;SDS011;40801;41.924;25.562;2022-09-01T13:28:53;7.63;;;4.70;;
54899;SDS011;40801;41.924;25.562;2022-09-01T13:31:18;4.95;;;4.43;;
54899;SDS011;40801;41.924;25.562;2022-09-01T13:33:44;7.18;;;5.18;;
54899;SDS011;40801;41.924;25.562;2022-09-01T13:36:09;8.48;;;5.00;;
54899;SDS011;40801;41.924;25.562;2022-09-01T13:38:35;9.30;;;8.40;;
54899;SDS011;40801;41.924;25.562;2022-09-01T13:41:00;7.75;;;5.28;;
54899;SDS011;40801;41.924;25.562;2022-09-01T13:43:26;6.70;;;4.97;;
54899;SDS011;40801;41.924;25.562;2022-09-01T13:45:52;6.57;;;5.80;;
54899;SDS011;40801;41.924;25.562;2022-09-01T13:48:18;8.93;;;7.15;;
54899;SDS011;40801;41.924;25.562;2022-09-01T13:50:45;8.40;;;5.60;;
54899;SDS011;40801;41.924;25.562;2022-09-01T13:53:14;5.38;;;4.40;;
54899;SDS011;40801;41.924;25.562;2022-09-01T13:55:40;8.18;;;5.25;;
54899;SDS011;40801;41.924;25.562;2022-09-01T13:58:06;6.93;;;5.65;;
54899;SDS011;40801;41.924;25.562;2022-09-01T14:00:33;7.78;;;4.90;;
54899;SDS011;40801;41.924;25.562;2022-09-01T14:03:03;5.85;;;4.70;;
54899;SDS011;40801;41.924;25.562;2022-09-01T14:05:33;8.45;;;5.47;;
54899;SDS011;40801;41.924;25.562;2022-09-01T14:08:01;7.07;;;5.22;;
54899;SDS011;40801;41.924;25.562;2022-09-01T14:10:27;15.40;;;12.70;;
54899;SDS011;40801;41.924;25.562;2022-09-01T14:12:56;6.75;;;5.90;;
54899;SDS011;40801;41.924;25.562;2022-09-01T14:15:21;5.68;;;5.03;;
54899;SDS011;40801;41.924;25.562;2022-09-01T14:17:48;11.05;;;6.43;;
54899;SDS011;40801;41.924;25.562;2022-09-01T14:20:17;12.38;;;6.28;;
54899;SDS011;40801;41.924;25.562;2022-09-01T14:22:44;8.30;;;6.53;;
54899;SDS011;40801;41.924;25.562;2022-09-01T14:25:10;10.95;;;6.32;;
54899;SDS011;40801;41.924;25.562;2022-09-01T14:27:37;6.35;;;5.40;;
54899;SDS011;40801;41.924;25.562;2022-09-01T14:30:06;8.98;;;6.03;;
54899;SDS011;40801;41.924;25.562;2022-09-01T14:32:34;7.53;;;5.70;;
54899;SDS011;40801;41.924;25.562;2022-09-01T14:35:00;5.97;;;5.38;;
54899;SDS011;40801;41.924;25.562;2022-09-01T14:37:26;6.35;;;5.60;;
54899;SDS011;40801;41.924;25.562;2022-09-01T14:39:52;5.78;;;5.20;;
54899;SDS011;40801;41.924;25.562;2022-09-01T14:42:19;9.05;;;7.57;;
54899;SDS011;40801;41.924;25.562;2022-09-01T14:44:45;7.40;;;6.70;;
54899;SDS011;40801;41.924;25.562;2022-09-01T14:47:12;7.18;;;6.50;;
54899;SDS011;40801;41.924;25.562;2022-09-01T14:49:38;6.00;;;5.43;;
54899;SDS011;40801;41.924;25.562;2022-09-01T14:52:04;7.93;;;6.47;;
54899;SDS011;40801;41.924;25.562;2022-09-01T14:54:35;6.45;;;6.05;;
54899;SDS011;40801;41.924;25.562;2022-09-01T14:57:02;9.43;;;7.30;;
54899;SDS011;40801;41.924;25.562;2022-09-01T14:59:28;9.50;;;7.40;;
54899;SDS011;40801;41.924;25.562;2022-09-01T15:01:54;8.80;;;6.93;;
54899;SDS011;40801;41.924;25.562;2022-09-01T15:04:20;7.63;;;6.03;;
54899;SDS011;40801;41.924;25.562;2022-09-01T15:06:45;7.72;;;6.47;;
54899;SDS011;40801;41.924;25.562;2022-09-01T15:09:11;7.78;;;5.43;;
54899;SDS011;40801;41.924;25.562;2022-09-01T15:11:36;10.65;;;6.10;;
54899;SDS011;40801;41.924;25.562;2022-09-01T15:14:02;6.10;;;5.03;;
54899;SDS011;40801;41.924;25.562;2022-09-01T15:16:28;19.83;;;17.98;;
54899;SDS011;40801;41.924;25.562;2022-09-01T15:18:54;7.65;;;6.95;;
54899;SDS011;40801;41.924;25.562;2022-09-01T15:21:26;19.55;;;17.77;;
54899;SDS011;40801;41.924;25.562;2022-09-01T15:23:56;7.32;;;6.63;;
54899;SDS011;40801;41.924;25.562;2022-09-01T15:26:21;16.85;;;13.18;;
54899;SDS011;40801;41.924;25.562;2022-09-01T15:28:47;11.43;;;9.27;;
54899;SDS011;40801;41.924;25.562;2022-09-01T15:31:14;23.73;;;21.50;;
54899;SDS011;40801;41.924;25.562;2022-09-01T15:33:42;8.70;;;6.93;;
54899;SDS011;40801;41.924;25.562;2022-09-01T15:36:08;13.82;;;11.23;;
54899;SDS011;40801;41.924;25.562;2022-09-01T15:38:40;7.43;;;5.90;;
54899;SDS011;40801;41.924;25.562;2022-09-01T15:41:05;9.15;;;5.72;;
54899;SDS011;40801;41.924;25.562;2022-09-01T15:43:31;8.27;;;6.13;;
54899;SDS011;40801;41.924;25.562;2022-09-01T15:45:57;7.55;;;5.38;;
54899;SDS011;40801;41.924;25.562;2022-09-01T15:48:23;7.68;;;5.88;;
54899;SDS011;40801;41.924;25.562;2022-09-01T15:50:50;8.67;;;5.30;;
54899;SDS011;40801;41.924;25.562;2022-09-01T15:53:16;8.43;;;5.82;;
54899;SDS011;40801;41.924;25.562;2022-09-01T15:55:43;6.50;;;5.85;;
54899;SDS011;40801;41.924;25.562;2022-09-01T15:58:11;9.23;;;8.37;;
54899;SDS011;40801;41.924;25.562;2022-09-01T16:00:37;6.73;;;5.93;;
54899;SDS011;40801;41.924;25.562;2022-09-01T16:03:04;19.40;;;16.35;;